createdAt,value
2023-10-13T00:00:16.238Z,58.860144
2023-10-13T00:05:16.476Z,58.661926
2023-10-13T00:10:16.664Z,58.463707
2023-10-13T00:15:16.331Z,58.265488
2023-10-13T00:20:16.589Z,57.968157
2023-10-13T00:25:16.511Z,57.670824
2023-10-13T00:30:16.361Z,57.670824
2023-10-13T00:35:16.605Z,57.568041
2023-10-13T00:40:16.684Z,57.766000
2023-10-13T00:45:16.440Z,57.963957
2023-10-13T00:50:16.800Z,57.963957
2023-10-13T00:55:16.630Z,57.864978
2023-10-13T01:00:16.444Z,57.869046
2023-10-13T01:05:16.624Z,57.175266
2023-10-13T01:10:16.632Z,57.075564
2023-10-13T01:15:16.512Z,57.174806
2023-10-13T01:20:16.682Z,57.671018
2023-10-13T01:25:16.656Z,58.164523
2023-10-13T01:30:16.625Z,58.263894
2023-10-13T01:35:16.768Z,58.164523
2023-10-13T01:40:16.710Z,57.472534
2023-10-13T01:45:18.304Z,57.076154
2023-10-13T01:50:16.654Z,56.877929
2023-10-13T01:55:16.949Z,56.977042
2023-10-13T02:00:16.565Z,56.875181
2023-10-13T02:05:16.693Z,56.974162
2023-10-13T02:10:16.743Z,57.073142
2023-10-13T02:15:16.588Z,57.271103
2023-10-13T02:20:16.545Z,57.271103
2023-10-13T02:25:16.927Z,57.469062
2023-10-13T02:30:16.849Z,57.769935
2023-10-13T02:35:16.927Z,57.370082
2023-10-13T02:40:16.833Z,57.769935
2023-10-13T02:45:16.509Z,57.571713
2023-10-13T02:50:16.795Z,57.271103
2023-10-13T02:55:16.716Z,57.165306
2023-10-13T03:00:16.717Z,56.858607
2023-10-13T03:05:16.636Z,56.967611
2023-10-13T03:10:17.611Z,56.868764
2023-10-13T03:15:16.783Z,56.974162
2023-10-13T03:20:16.657Z,56.776200
2023-10-13T03:25:16.843Z,56.677219
2023-10-13T03:30:16.704Z,56.578237
2023-10-13T03:35:16.881Z,56.176824
2023-10-13T03:40:17.105Z,56.077975
2023-10-13T03:45:17.868Z,55.979125
2023-10-13T03:50:16.842Z,55.781424
2023-10-13T03:55:18.089Z,55.885361
2023-10-13T04:00:17.743Z,55.687395
2023-10-13T04:05:17.812Z,55.489427
2023-10-13T04:10:17.952Z,55.688563
2023-10-13T04:15:18.062Z,55.490332
2023-10-13T04:20:17.829Z,55.586902
2023-10-13T04:25:18.266Z,55.487656
2023-10-13T04:30:17.894Z,55.388411
2023-10-13T04:35:18.003Z,55.680214
2023-10-13T04:40:18.110Z,55.680214
2023-10-13T04:45:17.968Z,55.580840
2023-10-13T04:50:17.936Z,55.481466
2023-10-13T04:55:18.217Z,55.282717
2023-10-13T05:00:18.566Z,55.282717
2023-10-13T05:05:18.082Z,55.083967
2023-10-13T05:10:18.031Z,55.083967
2023-10-13T05:15:17.982Z,54.984592
2023-10-13T05:20:17.938Z,54.885217
2023-10-13T05:25:18.213Z,54.785842
2023-10-13T05:30:17.959Z,54.775309
2023-10-13T05:35:18.036Z,54.775309
2023-10-13T05:40:18.767Z,54.476800
2023-10-13T05:45:18.940Z,54.078787
2023-10-13T05:50:19.934Z,54.163624
2023-10-13T05:55:18.472Z,53.964365
2023-10-13T06:00:17.973Z,53.864736
2023-10-13T06:05:18.183Z,53.665476
2023-10-13T06:10:18.057Z,53.565846
2023-10-13T06:15:18.088Z,53.466217
2023-10-13T06:20:18.042Z,53.466217
2023-10-13T06:25:18.164Z,53.167327
2023-10-13T06:30:18.214Z,52.785233
2023-10-13T06:35:18.223Z,52.884738
2023-10-13T06:40:18.185Z,52.685728
2023-10-13T06:45:18.021Z,52.968066
2023-10-13T06:50:18.216Z,52.669175
2023-10-13T06:55:18.749Z,52.469913
2023-10-13T07:00:18.353Z,52.370283
2023-10-13T07:05:18.337Z,52.469913
2023-10-13T07:10:19.286Z,52.287707
2023-10-13T07:15:18.158Z,52.387213
2023-10-13T07:20:18.209Z,52.387213
2023-10-13T07:25:18.237Z,52.188202
2023-10-13T07:30:16.326Z,51.989190
2023-10-13T07:35:16.270Z,51.971759
2023-10-13T07:40:18.064Z,51.772496
2023-10-13T07:45:17.194Z,51.573234
2023-10-13T07:50:16.496Z,51.573234
2023-10-13T07:55:16.531Z,51.573234
2023-10-13T08:00:16.418Z,51.573234
2023-10-13T08:05:16.591Z,51.193141
2023-10-13T08:10:16.799Z,51.193141
2023-10-13T08:15:16.967Z,51.093634
2023-10-13T08:20:16.424Z,51.093634
2023-10-13T08:25:16.790Z,50.894620
2023-10-13T08:30:16.453Z,50.795113
2023-10-13T08:35:16.381Z,50.695606
2023-10-13T08:40:27.253Z,50.596099
2023-10-13T08:45:16.436Z,50.875811
2023-10-13T08:50:16.520Z,50.496591
2023-10-13T08:55:16.547Z,50.576915
2023-10-13T09:00:16.515Z,50.377650
2023-10-13T09:05:16.505Z,50.155441
2023-10-13T09:10:16.570Z,50.029415
2023-10-13T09:15:16.578Z,49.829657
2023-10-13T09:20:17.443Z,49.629899
2023-10-13T09:25:17.241Z,49.430142
2023-10-13T09:30:16.471Z,49.330263
2023-10-13T09:35:16.529Z,49.500000
2023-10-13T09:40:16.637Z,49.230384
2023-10-13T09:45:17.337Z,49.230384
2023-10-13T09:50:16.621Z,49.030626
2023-10-13T09:55:16.754Z,49.130505
2023-10-13T10:00:16.638Z,49.030626
2023-10-13T10:05:16.603Z,48.930747
2023-10-13T10:10:16.624Z,49.030626
2023-10-13T10:15:16.556Z,48.930747
2023-10-13T10:20:16.579Z,48.930747
2023-10-13T10:25:16.864Z,48.830868
2023-10-13T10:30:16.788Z,48.631110
2023-10-13T10:35:16.988Z,48.331472
2023-10-13T10:40:17.086Z,48.231593
2023-10-13T10:45:16.666Z,48.131714
2023-10-13T10:50:16.645Z,48.131714
2023-10-13T10:55:16.829Z,48.031834
2023-10-13T11:00:16.684Z,48.300000
2023-10-13T11:05:16.834Z,47.832076
2023-10-13T11:10:17.368Z,48.000000
2023-10-13T11:15:16.684Z,48.000000
2023-10-13T11:20:16.801Z,48.300000
2023-10-13T11:25:16.868Z,48.231593
2023-10-13T11:30:16.654Z,48.431351
2023-10-13T11:35:16.790Z,48.730989
2023-10-13T11:40:17.306Z,48.930747
2023-10-13T11:45:17.938Z,48.858605
2023-10-13T11:50:16.708Z,49.157875
2023-10-13T11:55:17.165Z,49.357389
2023-10-13T12:00:16.889Z,49.281688
2023-10-13T12:05:17.069Z,49.756415
2023-10-13T12:10:16.855Z,49.779854
2023-10-13T12:15:16.884Z,49.979120
2023-10-13T12:20:16.985Z,50.098561
2023-10-13T12:25:16.937Z,50.098561
2023-10-13T12:30:17.149Z,50.098561
2023-10-13T12:35:17.053Z,50.397084
2023-10-13T12:40:16.942Z,50.214431
2023-10-13T12:45:16.830Z,50.611957
2023-10-13T12:50:16.947Z,50.711338
2023-10-13T12:55:17.075Z,50.810719
2023-10-13T13:00:16.980Z,50.910099
2023-10-13T13:05:16.947Z,51.506381
2023-10-13T13:10:17.410Z,51.517703
2023-10-13T13:15:16.994Z,51.616955
2023-10-13T13:20:16.975Z,51.815458
2023-10-13T13:25:16.969Z,52.120297
2023-10-13T13:30:17.156Z,52.615904
2023-10-13T13:35:17.160Z,53.111507
2023-10-13T13:40:17.232Z,52.717789
2023-10-13T13:45:17.785Z,52.816779
2023-10-13T13:50:17.197Z,53.113748
2023-10-13T13:55:17.075Z,53.112371
2023-10-13T14:00:17.613Z,53.310085
2023-10-13T14:05:17.166Z,53.310085
2023-10-13T14:10:17.192Z,53.211229
2023-10-13T14:15:17.136Z,53.606654
2023-10-13T14:20:17.063Z,53.606654
2023-10-13T14:25:17.721Z,53.304753
2023-10-13T14:30:17.084Z,53.699644
2023-10-13T14:35:17.176Z,53.798365
2023-10-13T14:40:17.401Z,54.094530
2023-10-13T14:45:17.382Z,54.291971
2023-10-13T14:50:17.186Z,53.887181
2023-10-13T14:55:17.261Z,53.985767
2023-10-13T15:00:18.214Z,54.291971
2023-10-13T15:05:17.951Z,54.380109
2023-10-13T15:10:17.536Z,54.478694
2023-10-13T15:15:17.463Z,54.478694
2023-10-13T15:20:17.511Z,54.168776
2023-10-13T15:25:17.280Z,54.675863
2023-10-13T15:30:17.442Z,54.774447
2023-10-13T15:35:17.339Z,54.971613
2023-10-13T15:40:18.011Z,54.956357
2023-10-13T15:45:18.103Z,54.956357
2023-10-13T15:50:17.746Z,55.153249
2023-10-13T15:55:17.411Z,54.937160
2023-10-13T16:00:17.329Z,55.350139
2023-10-13T16:05:17.377Z,55.527001
2023-10-13T16:10:17.535Z,55.723612
2023-10-13T16:15:17.341Z,55.502944
2023-10-13T16:20:17.538Z,55.601110
2023-10-13T16:25:52.368Z,55.601110
2023-10-13T16:30:17.425Z,55.993769
2023-10-13T16:35:17.422Z,55.993769
2023-10-13T16:40:17.411Z,56.091933
2023-10-13T16:45:17.380Z,55.670823
2023-10-13T16:50:17.536Z,56.190096
2023-10-13T16:55:17.771Z,56.091933
2023-10-13T17:00:17.533Z,55.670823
2023-10-13T17:05:17.660Z,55.866869
2023-10-13T17:10:17.538Z,55.993769
2023-10-13T17:15:17.548Z,56.288259
2023-10-13T17:20:17.485Z,55.993769
2023-10-13T17:25:17.702Z,55.866869
2023-10-13T17:30:17.636Z,56.484584
2023-10-13T17:35:17.533Z,56.190096
2023-10-13T17:40:17.841Z,55.768846
2023-10-13T17:45:18.399Z,56.190096
2023-10-13T17:50:17.627Z,56.582745
2023-10-13T17:55:17.702Z,56.582745
2023-10-13T18:00:17.783Z,56.553018
2023-10-13T18:05:17.499Z,56.680907
2023-10-13T18:10:17.970Z,56.454998
2023-10-13T18:15:17.799Z,56.553018
2023-10-13T18:20:17.511Z,56.651038
2023-10-13T18:25:17.691Z,56.749057
2023-10-13T18:30:17.561Z,56.323322
2023-10-13T18:35:17.722Z,56.553018
2023-10-13T18:40:17.956Z,56.553018
2023-10-13T18:45:17.652Z,56.519076
2023-10-13T18:50:17.638Z,56.519076
2023-10-13T18:55:18.063Z,56.421199
2023-10-13T19:00:17.689Z,56.945094
2023-10-13T19:05:17.681Z,56.519076
2023-10-13T19:10:17.989Z,56.616952
2023-10-13T19:15:17.820Z,56.421199
2023-10-13T19:20:17.789Z,56.225444
2023-10-13T19:25:18.123Z,56.225444
2023-10-13T19:30:17.770Z,56.225444
2023-10-13T19:35:17.734Z,56.553018
2023-10-13T19:40:18.183Z,56.553018
2023-10-13T19:45:18.529Z,56.225444
2023-10-13T19:50:18.091Z,56.225444
2023-10-13T19:55:18.010Z,56.454998
2023-10-13T20:00:17.899Z,56.029687
2023-10-13T20:05:17.901Z,56.779068
2023-10-13T20:10:17.997Z,56.484584
2023-10-13T20:15:18.056Z,56.258957
2023-10-13T20:20:18.479Z,56.258957
2023-10-13T20:25:18.235Z,56.582745
2023-10-13T20:30:17.967Z,56.091933
2023-10-13T20:35:17.873Z,56.288259
2023-10-13T20:40:18.128Z,55.964892
2023-10-13T20:45:18.093Z,55.964892
2023-10-13T20:50:18.036Z,55.866869
2023-10-13T20:55:18.042Z,55.895605
2023-10-13T21:00:18.132Z,55.670823
2023-10-13T21:05:18.112Z,55.572799
2023-10-13T21:10:17.956Z,55.895605
2023-10-13T21:15:17.939Z,56.116829
2023-10-13T21:20:17.997Z,55.723612
2023-10-13T21:25:18.470Z,55.940802
2023-10-13T21:30:18.054Z,55.527001
2023-10-13T21:35:18.327Z,55.625307
2023-10-13T21:40:18.352Z,56.351746
2023-10-13T21:45:18.790Z,55.842359
2023-10-13T21:50:18.111Z,55.428695
2023-10-13T21:55:18.249Z,55.645472
2023-10-13T22:00:18.173Z,55.547028
2023-10-13T22:05:18.037Z,55.350139
2023-10-13T22:10:18.399Z,55.251694
2023-10-13T22:15:18.168Z,55.464525
2023-10-13T22:20:18.083Z,55.267361
2023-10-13T22:25:18.317Z,55.168779
2023-10-13T22:30:18.103Z,55.279161
2023-10-13T22:35:18.297Z,55.279161
2023-10-13T22:40:18.210Z,55.180443
2023-10-13T22:45:18.357Z,55.081725
2023-10-13T22:50:18.093Z,55.081725
2023-10-13T22:55:18.391Z,55.287169
2023-10-13T23:00:18.188Z,54.990613
2023-10-13T23:05:18.236Z,54.990613
2023-10-13T23:10:16.854Z,54.792908
2023-10-13T23:15:16.387Z,54.595201
2023-10-13T23:20:16.550Z,54.397494
2023-10-13T23:25:16.409Z,54.499577
2023-10-13T23:30:16.389Z,54.400590
2023-10-13T23:35:16.253Z,54.301604
2023-10-13T23:40:16.627Z,54.202617
2023-10-13T23:45:17.489Z,54.202617
2023-10-13T23:50:16.334Z,54.202617
2023-10-13T23:55:16.473Z,54.202617
